Time;durP1;ratioP1;P1;durP2;ratioP2;P2;SDS_P1;SDS_P2;PMS_P1;PMS_P2;Temp;Humidity;BMP_temperature;BMP_pressure;BME280_temperature;BME280_humidity;BME280_pressure;Samples;Min_cycle;Max_cycle;Signal;HPM_P1;HPM_P2
2023/03/08 00:00:53;;;;;;;;;;;;;;;-0.88;73.00;98746.01;107749;1254;71457;-83
2023/03/08 00:03:21;;;;;;;;;;;;;;;-0.89;73.10;98743.19;107556;1257;124142;-83
2023/03/08 00:05:48;;;;;;;;;;;;;;;-0.91;72.86;98745.86;107670;1254;59729;-84
2023/03/08 00:08:17;;;;;;;;;;;;;;;-0.93;72.67;98746.30;107439;1256;74684;-84
2023/03/08 00:10:44;;;;;;;;;;;;;;;-0.96;72.66;98749.63;107502;1257;124215;-84
2023/03/08 00:13:11;;;;;;;;;;;;;;;-1.00;72.44;98753.84;107470;1254;71131;-84
2023/03/08 00:15:38;;;;;;;;;;;;;;;-1.02;72.53;98755.14;107515;1254;125060;-84
2023/03/08 00:18:05;;;;;;;;;;;;;;;-1.03;72.46;98753.69;107333;1254;61399;-83
2023/03/08 00:20:38;;;;;;;;;;;;;;;-1.04;72.46;98761.73;107693;1254;74478;-83
2023/03/08 00:23:11;;;;;;;;;;;;;;;-1.04;72.64;98758.64;107626;1259;124598;-84
2023/03/08 00:25:40;;;;;;;;;;;;;;;-1.03;72.56;98759.76;107903;1254;73186;-83
2023/03/08 00:28:08;;;;;;;;;;;;;;;-1.02;72.42;98760.63;107618;1254;124221;-83
2023/03/08 00:30:35;;;;;;;;;;;;;;;-1.00;72.45;98766.02;107976;1254;61945;-83
2023/03/08 00:33:03;;;;;;;;;;;;;;;-1.02;72.39;98767.02;107660;1254;73038;-83
2023/03/08 00:35:30;;;;;;;;;;;;;;;-1.03;72.48;98767.46;107698;1256;123711;-83
2023/03/08 00:37:57;;;;;;;;;;;;;;;-1.04;72.32;98768.81;107860;1254;72704;-83
2023/03/08 00:40:24;;;;;;;;;;;;;;;-1.04;72.35;98766.21;107254;1257;124394;-83
2023/03/08 00:42:51;;;;;;;;;;;;;;;-1.05;72.43;98763.59;107644;1257;60690;-83
2023/03/08 00:45:18;;;;;;;;;;;;;;;-1.06;72.24;98762.90;107836;1254;124550;-84
2023/03/08 00:47:47;;;;;;;;;;;;;;;-1.07;72.25;98762.00;107671;1257;67350;-83
2023/03/08 00:50:14;;;;;;;;;;;;;;;-1.09;72.23;98762.08;107405;1258;72716;-87
2023/03/08 00:52:43;;;;;;;;;;;;;;;-1.10;72.23;98763.60;107295;1254;125206;-87
2023/03/08 00:55:45;;;;;;;;;;;;;;;-1.07;72.05;98765.05;107212;1254;59426;-87
2023/03/08 00:58:13;;;;;;;;;;;;;;;-1.07;72.15;98760.08;107115;1254;125054;-86
2023/03/08 01:00:58;;;;;;;;;;;;;;;-1.06;71.92;98761.33;107399;1254;66894;-86
2023/03/08 01:03:25;;;;;;;;;;;;;;;-1.07;71.96;98754.38;107264;1254;124552;-86
2023/03/08 01:06:06;;;;;;;;;;;;;;;-1.07;71.86;98753.56;107310;1254;61151;-87
2023/03/08 01:08:46;;;;;;;;;;;;;;;-1.07;71.64;98754.95;107173;1254;61391;-87
2023/03/08 01:11:17;;;;;;;;;;;;;;;-1.06;71.67;98752.89;106974;1259;123855;-87
2023/03/08 01:13:44;;;;;;;;;;;;;;;-1.05;71.37;98752.59;107229;1255;65498;-87
2023/03/08 01:16:17;;;;;;;;;;;;;;;-1.08;71.15;98756.80;107215;1256;123725;-83
2023/03/08 01:18:50;;;;;;;;;;;;;;;-1.08;71.11;98760.23;107212;1257;61487;-86
2023/03/08 01:21:31;;;;;;;;;;;;;;;-1.09;70.99;98759.83;107007;1254;124057;-86
2023/03/08 01:24:20;;;;;;;;;;;;;;;-1.11;70.88;98756.48;107312;1254;75228;-87
2023/03/08 01:26:59;;;;;;;;;;;;;;;-1.11;70.83;98762.83;107314;1254;67181;-87
2023/03/08 01:29:27;;;;;;;;;;;;;;;-1.14;70.45;98759.11;107148;1256;124616;-88
2023/03/08 01:31:54;;;;;;;;;;;;;;;-1.15;70.50;98765.13;107111;1256;61270;-86
2023/03/08 01:34:36;;;;;;;;;;;;;;;-1.14;70.32;98761.36;107154;1255;125347;-85
2023/03/08 01:37:09;;;;;;;;;;;;;;;-1.14;70.41;98760.48;107502;1257;74718;-87
2023/03/08 01:39:36;;;;;;;;;;;;;;;-1.15;70.23;98760.65;107401;1256;124000;-86
2023/03/08 01:42:06;;;;;;;;;;;;;;;-1.15;70.17;98759.59;107693;1256;72717;-85
2023/03/08 01:44:52;;;;;;;;;;;;;;;-1.16;70.21;98762.33;107711;1256;59365;-86
2023/03/08 01:47:22;;;;;;;;;;;;;;;-1.14;70.08;98753.63;107373;1256;123779;-85
2023/03/08 01:50:09;;;;;;;;;;;;;;;-1.15;69.91;98765.13;107458;1254;74682;-86
2023/03/08 01:52:45;;;;;;;;;;;;;;;-1.19;69.90;98760.66;107186;1256;123956;-86
2023/03/08 01:55:19;;;;;;;;;;;;;;;-1.20;69.59;98768.02;107572;1256;71386;-87
2023/03/08 01:58:01;;;;;;;;;;;;;;;-1.22;69.51;98767.91;107182;1257;124196;-86
2023/03/08 02:00:30;;;;;;;;;;;;;;;-1.25;69.50;98768.85;107089;1255;61091;-86
2023/03/08 02:03:00;;;;;;;;;;;;;;;-1.28;69.40;98768.05;107323;1255;72844;-86
2023/03/08 02:05:28;;;;;;;;;;;;;;;-1.30;69.32;98766.59;107108;1256;124200;-86
2023/03/08 02:07:56;;;;;;;;;;;;;;;-1.32;69.15;98766.50;107251;1254;72734;-85
2023/03/08 02:10:23;;;;;;;;;;;;;;;-1.33;68.93;98770.60;107574;1257;124449;-82
2023/03/08 02:12:50;;;;;;;;;;;;;;;-1.34;69.07;98779.30;107977;1254;60392;-82
2023/03/08 02:15:18;;;;;;;;;;;;;;;-1.36;68.71;98784.93;107509;1254;124842;-82
2023/03/08 02:17:47;;;;;;;;;;;;;;;-1.38;68.58;98780.04;107397;1254;65644;-82
2023/03/08 02:20:14;;;;;;;;;;;;;;;-1.38;68.78;98775.91;107551;1254;72646;-82
2023/03/08 02:22:42;;;;;;;;;;;;;;;-1.38;68.54;98780.21;107693;1259;124008;-82
2023/03/08 02:25:13;;;;;;;;;;;;;;;-1.40;68.41;98788.05;107545;1254;61157;-82
2023/03/08 02:27:40;;;;;;;;;;;;;;;-1.40;68.39;98786.84;107570;1254;124646;-82
2023/03/08 02:30:08;;;;;;;;;;;;;;;-1.39;68.31;98778.45;107631;1256;67340;-82
2023/03/08 02:32:42;;;;;;;;;;;;;;;-1.38;68.30;98792.07;107383;1254;71352;-82
2023/03/08 02:35:11;;;;;;;;;;;;;;;-1.40;68.03;98791.15;107225;1254;123992;-83
2023/03/08 02:37:53;;;;;;;;;;;;;;;-1.42;67.96;98793.44;107487;1256;61150;-87
2023/03/08 02:40:40;;;;;;;;;;;;;;;-1.43;67.83;98794.79;107396;1254;123959;-87
2023/03/08 02:43:07;;;;;;;;;;;;;;;-1.38;67.92;98792.59;107771;1254;67014;-83
2023/03/08 02:45:38;;;;;;;;;;;;;;;-1.28;68.01;98790.39;107204;1256;124088;-87
2023/03/08 02:48:05;;;;;;;;;;;;;;;-1.20;68.02;98786.61;107513;1254;59898;-85
2023/03/08 02:50:32;;;;;;;;;;;;;;;-1.13;67.95;98791.84;107280;1256;61120;-86
2023/03/08 02:53:05;;;;;;;;;;;;;;;-1.12;67.61;98795.35;107403;1254;124097;-86
2023/03/08 02:55:36;;;;;;;;;;;;;;;-1.12;67.58;98799.82;107460;1254;64791;-86
2023/03/08 02:58:05;;;;;;;;;;;;;;;-1.15;67.57;98803.31;107533;1254;123909;-86
2023/03/08 03:00:33;;;;;;;;;;;;;;;-1.22;67.48;98806.00;107569;1254;60477;-86
2023/03/08 03:03:02;;;;;;;;;;;;;;;-1.26;67.44;98805.82;107957;1254;59790;-86
2023/03/08 03:05:29;;;;;;;;;;;;;;;-1.28;67.57;98802.60;107837;1260;123713;-83
2023/03/08 03:07:57;;;;;;;;;;;;;;;-1.28;67.68;98808.63;107889;1260;68082;-83
2023/03/08 03:10:24;;;;;;;;;;;;;;;-1.30;67.70;98808.38;107737;1254;124464;-86
2023/03/08 03:12:53;;;;;;;;;;;;;;;-1.33;67.55;98809.27;107801;1254;62103;-86
2023/03/08 03:15:20;;;;;;;;;;;;;;;-1.38;67.47;98810.30;107841;1254;123847;-86
2023/03/08 03:17:56;;;;;;;;;;;;;;;-1.40;67.57;98812.46;108098;1254;73359;-86
2023/03/08 03:20:23;;;;;;;;;;;;;;;-1.42;67.69;98816.00;107866;1254;67085;-87
2023/03/08 03:22:52;;;;;;;;;;;;;;;-1.44;67.69;98815.57;108000;1256;124075;-83
2023/03/08 03:25:19;;;;;;;;;;;;;;;-1.45;67.66;98813.29;107782;1254;61050;-83
2023/03/08 03:27:46;;;;;;;;;;;;;;;-1.46;67.88;98816.16;107628;1256;125140;-83
2023/03/08 03:30:14;;;;;;;;;;;;;;;-1.44;67.64;98820.92;107642;1254;74173;-82
2023/03/08 03:32:41;;;;;;;;;;;;;;;-1.41;67.65;98819.13;107971;1257;66349;-81
2023/03/08 03:35:08;;;;;;;;;;;;;;;-1.41;67.41;98824.29;107595;1254;124970;-81
2023/03/08 03:37:35;;;;;;;;;;;;;;;-1.42;67.52;98818.58;107921;1254;61138;-81
2023/03/08 03:40:03;;;;;;;;;;;;;;;-1.41;67.48;98827.22;107592;1254;124301;-82
2023/03/08 03:42:30;;;;;;;;;;;;;;;-1.43;67.23;98828.34;107862;1256;73370;-82
2023/03/08 03:44:57;;;;;;;;;;;;;;;-1.43;67.20;98837.46;108036;1259;67034;-82
2023/03/08 03:47:24;;;;;;;;;;;;;;;-1.42;67.20;98839.41;108189;1254;124568;-83
2023/03/08 03:49:51;;;;;;;;;;;;;;;-1.41;67.11;98844.27;108081;1254;61036;-82
2023/03/08 03:52:24;;;;;;;;;;;;;;;-1.41;67.10;98845.98;107990;1254;124262;-82
2023/03/08 03:54:51;;;;;;;;;;;;;;;-1.41;67.32;98846.68;108211;1255;72477;-82
2023/03/08 03:57:19;;;;;;;;;;;;;;;-1.44;66.94;98847.89;107842;1254;124391;-82
2023/03/08 03:59:46;;;;;;;;;;;;;;;-1.46;67.15;98847.13;108731;1254;72715;-82
2023/03/08 04:02:13;;;;;;;;;;;;;;;-1.46;66.83;98850.05;108071;1254;59348;-82
2023/03/08 04:04:40;;;;;;;;;;;;;;;-1.47;66.84;98845.89;108219;1254;123732;-83
2023/03/08 04:07:08;;;;;;;;;;;;;;;-1.49;66.86;98847.52;109047;1254;72404;-83
2023/03/08 04:09:34;;;;;;;;;;;;;;;-1.51;66.76;98851.91;108949;1254;123842;-83
2023/03/08 04:12:04;;;;;;;;;;;;;;;-1.52;66.63;98858.56;109142;1254;72563;-83
2023/03/08 04:14:32;;;;;;;;;;;;;;;-1.54;66.66;98861.08;109069;1255;59215;-82
2023/03/08 04:16:59;;;;;;;;;;;;;;;-1.51;66.84;98859.48;109034;1254;124459;-82
2023/03/08 04:19:26;;;;;;;;;;;;;;;-1.48;66.76;98869.57;108994;1254;75252;-83
2023/03/08 04:21:54;;;;;;;;;;;;;;;-1.48;66.76;98868.35;107691;1259;124764;-83
2023/03/08 04:24:21;;;;;;;;;;;;;;;-1.52;66.58;98871.13;108128;1254;72689;-82
2023/03/08 04:26:49;;;;;;;;;;;;;;;-1.56;66.52;98871.31;108098;1254;59749;-82
2023/03/08 04:29:16;;;;;;;;;;;;;;;-1.58;66.50;98875.55;107963;1254;123689;-82
2023/03/08 04:31:45;;;;;;;;;;;;;;;-1.62;66.45;98875.19;107947;1254;73113;-82
2023/03/08 04:34:12;;;;;;;;;;;;;;;-1.65;66.42;98881.05;107607;1259;124272;-81
2023/03/08 04:36:39;;;;;;;;;;;;;;;-1.68;66.35;98878.34;107629;1254;72753;-82
2023/03/08 04:39:07;;;;;;;;;;;;;;;-1.69;66.43;98876.24;107698;1256;61252;-82
2023/03/08 04:41:34;;;;;;;;;;;;;;;-1.71;66.31;98867.73;107481;1254;124276;-83
2023/03/08 04:44:04;;;;;;;;;;;;;;;-1.71;66.33;98868.07;107932;1254;73278;-83
2023/03/08 04:46:33;;;;;;;;;;;;;;;-1.74;66.37;98867.79;107505;1254;124148;-82
2023/03/08 04:49:00;;;;;;;;;;;;;;;-1.78;66.30;98878.64;107460;1254;71080;-83
2023/03/08 04:51:29;;;;;;;;;;;;;;;-1.81;66.32;98880.23;107254;1260;124370;-82
2023/03/08 04:53:56;;;;;;;;;;;;;;;-1.83;66.27;98887.54;107728;1256;61034;-82
2023/03/08 04:56:23;;;;;;;;;;;;;;;-1.84;66.41;98886.63;107743;1254;74962;-82
2023/03/08 04:58:50;;;;;;;;;;;;;;;-1.85;66.33;98884.16;107811;1257;124020;-82
2023/03/08 05:01:18;;;;;;;;;;;;;;;-1.85;66.26;98884.00;107599;1256;71082;-83
2023/03/08 05:03:48;;;;;;;;;;;;;;;-1.81;66.41;98883.65;107824;1254;124294;-82
2023/03/08 05:06:16;;;;;;;;;;;;;;;-1.77;66.49;98886.40;108130;1254;61250;-88
2023/03/08 05:08:43;;;;;;;;;;;;;;;-1.74;66.48;98886.20;107707;1254;73616;-88
2023/03/08 05:11:13;;;;;;;;;;;;;;;-1.68;66.50;98889.19;107412;1254;124006;-88
2023/03/08 05:16:45;;;;;;;;;;;;;;;-1.50;66.68;98897.20;107663;1254;124219;-88
2023/03/08 05:19:12;;;;;;;;;;;;;;;-1.41;66.56;98906.20;107441;1254;60920;-89
2023/03/08 05:21:53;;;;;;;;;;;;;;;-1.37;66.51;98903.08;107336;1254;124668;-90
2023/03/08 05:24:27;;;;;;;;;;;;;;;-1.29;66.56;98905.98;107510;1254;67136;-89
2023/03/08 05:27:06;;;;;;;;;;;;;;;-1.21;66.37;98905.32;107297;1254;72703;-91
2023/03/08 05:29:58;;;;;;;;;;;;;;;-1.15;66.26;98912.44;107233;1254;124364;-92
2023/03/08 05:32:26;;;;;;;;;;;;;;;-1.04;66.57;98923.23;107612;1254;59409;-81
2023/03/08 05:34:52;;;;;;;;;;;;;;;-0.91;66.41;98924.59;107832;1254;124399;-83
2023/03/08 05:37:24;;;;;;;;;;;;;;;-0.85;66.18;98926.74;107798;1254;67153;-84
2023/03/08 05:39:51;;;;;;;;;;;;;;;-0.85;65.94;98927.81;107639;1254;124283;-83
2023/03/08 05:42:18;;;;;;;;;;;;;;;-0.87;65.79;98923.21;107588;1259;59305;-82
2023/03/08 05:44:45;;;;;;;;;;;;;;;-0.90;65.67;98929.83;107624;1254;61789;-83
2023/03/08 05:47:12;;;;;;;;;;;;;;;-0.77;66.03;98933.09;107693;1254;123713;-84
2023/03/08 05:49:41;;;;;;;;;;;;;;;-0.55;66.02;98939.99;107651;1254;65971;-81
2023/03/08 05:52:12;;;;;;;;;;;;;;;-0.43;65.93;98945.33;107915;1254;123904;-81
2023/03/08 05:54:39;;;;;;;;;;;;;;;-0.36;65.99;98944.56;108020;1254;60482;-82
2023/03/08 05:57:06;;;;;;;;;;;;;;;-0.32;65.89;98948.86;108257;1254;60763;-81
2023/03/08 05:59:33;;;;;;;;;;;;;;;-0.32;65.83;98951.75;107992;1254;124449;-80
2023/03/08 06:02:00;;;;;;;;;;;;;;;-0.38;66.00;98960.16;108144;1255;67062;-81
2023/03/08 06:04:27;;;;;;;;;;;;;;;-0.40;67.15;98966.98;107560;1254;123943;-81
2023/03/08 06:06:53;;;;;;;;;;;;;;;-0.51;67.66;98970.29;107621;1255;61092;-81
2023/03/08 06:09:20;;;;;;;;;;;;;;;-0.64;67.69;98972.57;107474;1254;124302;-80
2023/03/08 06:11:47;;;;;;;;;;;;;;;-0.74;67.74;98974.91;107587;1259;73129;-81
2023/03/08 06:14:15;;;;;;;;;;;;;;;-0.82;67.56;98976.46;107434;1255;65992;-82
2023/03/08 06:16:42;;;;;;;;;;;;;;;-0.88;67.17;98985.00;107752;1254;124066;-83
2023/03/08 06:19:10;;;;;;;;;;;;;;;-0.91;66.98;98986.42;107644;1254;61115;-81
2023/03/08 06:21:43;;;;;;;;;;;;;;;-0.91;66.90;98991.24;108017;1254;123936;-81
2023/03/08 06:24:10;;;;;;;;;;;;;;;-0.90;66.91;98993.89;107939;1254;74484;-81
2023/03/08 06:26:37;;;;;;;;;;;;;;;-0.86;66.69;98991.45;107470;1254;67180;-82
2023/03/08 06:29:04;;;;;;;;;;;;;;;-0.83;66.47;98994.00;107910;1257;124279;-81
2023/03/08 06:31:31;;;;;;;;;;;;;;;-0.76;66.62;99000.84;107672;1254;60438;-81
2023/03/08 06:33:59;;;;;;;;;;;;;;;-0.67;66.51;99002.77;107707;1254;124733;-81
2023/03/08 06:36:30;;;;;;;;;;;;;;;-0.58;66.46;99010.35;107695;1255;75121;-81
2023/03/08 06:39:13;;;;;;;;;;;;;;;-0.52;66.49;99014.58;107596;1255;65438;-89
2023/03/08 06:41:41;;;;;;;;;;;;;;;-0.43;66.94;99021.14;107420;1254;123763;-89
2023/03/08 06:44:10;;;;;;;;;;;;;;;-0.39;67.60;99026.98;107744;1254;60339;-89
2023/03/08 06:46:37;;;;;;;;;;;;;;;-0.40;68.35;99030.56;107765;1255;124483;-89
2023/03/08 06:49:09;;;;;;;;;;;;;;;-0.43;67.94;99038.71;107567;1254;74523;-88
2023/03/08 06:51:38;;;;;;;;;;;;;;;-0.45;67.62;99041.39;107697;1255;124576;-88
2023/03/08 06:54:08;;;;;;;;;;;;;;;-0.45;67.60;99043.11;107788;1257;72914;-80
2023/03/08 06:56:35;;;;;;;;;;;;;;;-0.44;67.54;99053.32;107677;1254;62373;-80
2023/03/08 06:59:02;;;;;;;;;;;;;;;-0.36;67.49;99050.89;108816;1254;124420;-81
2023/03/08 07:01:35;;;;;;;;;;;;;;;-0.26;67.50;99051.12;108187;1254;75389;-89
2023/03/08 07:04:11;;;;;;;;;;;;;;;-0.19;67.36;99058.13;107532;1255;123932;-88
2023/03/08 07:06:38;;;;;;;;;;;;;;;-0.15;67.22;99058.44;107340;1256;71385;-81
2023/03/08 07:09:05;;;;;;;;;;;;;;;-0.10;67.30;99060.55;107450;1257;60026;-81
2023/03/08 07:11:33;;;;;;;;;;;;;;;-0.04;67.17;99068.76;107597;1258;124214;-89
2023/03/08 07:14:06;;;;;;;;;;;;;;;0.01;66.90;99072.71;107389;1257;73015;-89
2023/03/08 07:16:33;;;;;;;;;;;;;;;0.03;66.57;99073.83;107607;1257;124417;-81
2023/03/08 07:19:01;;;;;;;;;;;;;;;0.05;66.49;99072.70;107536;1255;73114;-81
2023/03/08 07:21:28;;;;;;;;;;;;;;;0.09;66.30;99080.96;107241;1260;123820;-80
2023/03/08 07:23:55;;;;;;;;;;;;;;;0.13;66.12;99083.89;107741;1259;60076;-89
2023/03/08 07:26:23;;;;;;;;;;;;;;;0.16;66.03;99091.61;107337;1256;74378;-89
2023/03/08 07:28:50;;;;;;;;;;;;;;;0.22;66.03;99092.02;107340;1254;124053;-81
2023/03/08 07:31:17;;;;;;;;;;;;;;;0.27;65.97;99097.39;107379;1254;72718;-89
2023/03/08 07:33:55;;;;;;;;;;;;;;;0.32;65.93;99100.16;107702;1260;124424;-89
2023/03/08 07:36:23;;;;;;;;;;;;;;;0.38;65.83;99108.15;107444;1254;60746;-89
2023/03/08 07:38:50;;;;;;;;;;;;;;;0.55;66.09;99122.27;107562;1254;74360;-81
2023/03/08 07:41:29;;;;;;;;;;;;;;;0.93;66.71;99122.65;107756;1254;124098;-89
2023/03/08 07:44:03;;;;;;;;;;;;;;;1.11;66.29;99117.12;107911;1254;72690;-89
2023/03/08 07:46:30;;;;;;;;;;;;;;;1.17;65.81;99126.15;107687;1254;124238;-89
2023/03/08 07:48:57;;;;;;;;;;;;;;;1.40;66.25;99135.95;108348;1254;59990;-89
2023/03/08 07:51:24;;;;;;;;;;;;;;;1.62;66.40;99140.84;108818;1254;123670;-88
2023/03/08 07:53:57;;;;;;;;;;;;;;;1.85;66.10;99142.17;107955;1254;65421;-89
2023/03/08 07:56:24;;;;;;;;;;;;;;;1.92;65.70;99149.50;108043;1254;71922;-85
2023/03/08 07:58:57;;;;;;;;;;;;;;;1.89;65.36;99151.96;107530;1254;123496;-89
2023/03/08 08:01:25;;;;;;;;;;;;;;;1.81;65.36;99153.60;107737;1254;61275;-81
2023/03/08 08:03:52;;;;;;;;;;;;;;;1.68;64.92;99155.26;108425;1258;124286;-81
2023/03/08 08:06:27;;;;;;;;;;;;;;;1.59;64.85;99156.13;107925;1254;67564;-89
2023/03/08 08:08:55;;;;;;;;;;;;;;;1.54;64.75;99168.78;107454;1258;71402;-81
2023/03/08 08:11:22;;;;;;;;;;;;;;;1.52;64.72;99169.89;107367;1254;123633;-79
2023/03/08 08:13:55;;;;;;;;;;;;;;;1.51;64.67;99171.08;107805;1256;59733;-89
2023/03/08 08:16:24;;;;;;;;;;;;;;;1.59;64.95;99176.55;108088;1259;123740;-89
2023/03/08 08:18:51;;;;;;;;;;;;;;;1.82;64.90;99178.70;107915;1255;65166;-82
2023/03/08 08:21:19;;;;;;;;;;;;;;;2.05;64.85;99178.66;107782;1254;72551;-82
2023/03/08 08:23:46;;;;;;;;;;;;;;;2.24;64.57;99183.44;107775;1254;61144;-80
2023/03/08 08:26:19;;;;;;;;;;;;;;;2.31;63.94;99184.71;107839;1259;61291;-88
2023/03/08 08:28:48;;;;;;;;;;;;;;;2.31;63.76;99183.98;107481;1254;123276;-89
2023/03/08 08:31:16;;;;;;;;;;;;;;;2.31;63.80;99192.50;107608;1257;65531;-81
2023/03/08 08:33:56;;;;;;;;;;;;;;;2.36;63.87;99198.52;107505;1254;123937;-89
2023/03/08 08:36:23;;;;;;;;;;;;;;;2.65;64.03;99202.73;107423;1256;61250;-80
2023/03/08 08:38:51;;;;;;;;;;;;;;;2.88;63.50;99207.11;107450;1254;59927;-89
2023/03/08 08:41:19;;;;;;;;;;;;;;;2.97;63.25;99213.44;107585;1254;123542;-80
2023/03/08 08:43:55;;;;;;;;;;;;;;;3.06;63.12;99218.73;107387;1257;67491;-89
2023/03/08 08:46:29;;;;;;;;;;;;;;;3.12;62.75;99217.02;106955;1255;123563;-90
2023/03/08 08:48:57;;;;;;;;;;;;;;;3.08;62.18;99221.73;107425;1257;59952;-90
2023/03/08 08:51:25;;;;;;;;;;;;;;;2.99;62.05;99230.31;107454;1256;61190;-89
2023/03/08 08:53:55;;;;;;;;;;;;;;;2.96;62.16;99235.40;107407;1261;74423;-89
2023/03/08 08:56:23;;;;;;;;;;;;;;;3.01;61.84;99230.70;107797;1254;66788;-81
2023/03/08 08:58:51;;;;;;;;;;;;;;;3.12;61.70;99240.75;107791;1257;124345;-89
2023/03/08 09:01:25;;;;;;;;;;;;;;;3.10;61.23;99247.80;107883;1254;62296;-89
2023/03/08 09:03:53;;;;;;;;;;;;;;;3.05;60.85;99254.75;107796;1257;124012;-88
2023/03/08 09:06:20;;;;;;;;;;;;;;;2.96;60.72;99264.17;107764;1257;73558;-89
2023/03/08 09:08:55;;;;;;;;;;;;;;;2.81;59.24;99287.08;107454;1257;64682;-89
2023/03/08 09:11:22;;;;;;;;;;;;;;;2.54;56.43;99275.11;107295;1256;123827;-88
2023/03/08 09:13:52;;;;;;;;;;;;;;;2.29;56.36;99285.55;107478;1256;62233;-89
2023/03/08 09:16:23;;;;;;;;;;;;;;;2.10;55.56;99285.76;107415;1255;123597;-89
2023/03/08 09:19:03;;;;;;;;;;;;;;;1.98;55.06;99294.66;107319;1257;75256;-89
2023/03/08 09:21:38;;;;;;;;;;;;;;;1.93;55.75;99282.05;107204;1254;123813;-87
2023/03/08 09:24:05;;;;;;;;;;;;;;;1.96;55.81;99290.95;107791;1254;71406;-81
2023/03/08 09:26:34;;;;;;;;;;;;;;;2.00;55.66;99291.95;109127;1254;59308;-89
2023/03/08 09:29:06;;;;;;;;;;;;;;;2.05;55.49;99295.09;107403;1257;123975;-88
2023/03/08 09:34:26;;;;;;;;;;;;;;;2.12;54.86;99297.41;107316;1257;123576;-89
2023/03/08 09:36:56;;;;;;;;;;;;;;;2.20;54.71;99300.80;107227;1262;71228;-89
2023/03/08 09:39:30;;;;;;;;;;;;;;;2.26;54.26;99309.65;107370;1255;60467;-89
2023/03/08 09:42:01;;;;;;;;;;;;;;;2.27;53.08;99310.39;107186;1254;275167;-89
2023/03/08 09:44:48;;;;;;;;;;;;;;;2.25;52.61;99311.70;107301;1257;74673;-89
2023/03/08 09:47:39;;;;;;;;;;;;;;;2.21;51.41;99322.48;107127;1255;123519;-89
2023/03/08 09:50:07;;;;;;;;;;;;;;;2.17;52.10;99330.27;107214;1254;71366;-89
2023/03/08 09:52:49;;;;;;;;;;;;;;;2.15;51.57;99322.09;107331;1257;123990;-89
2023/03/08 09:55:39;;;;;;;;;;;;;;;2.17;52.23;99328.52;107378;1257;60323;-81
2023/03/08 09:58:24;;;;;;;;;;;;;;;2.13;51.41;99334.81;107262;1257;124192;-81
2023/03/08 10:00:54;;;;;;;;;;;;;;;2.05;51.23;99335.75;107256;1256;67788;-81
2023/03/08 10:03:38;;;;;;;;;;;;;;;1.96;50.75;99342.52;107541;1257;71127;-81
2023/03/08 10:06:05;;;;;;;;;;;;;;;1.89;50.76;99337.42;107592;1259;59343;-81
2023/03/08 10:08:34;;;;;;;;;;;;;;;1.89;50.80;99339.33;107781;1258;60077;-81
2023/03/08 10:11:03;;;;;;;;;;;;;;;1.93;50.89;99342.92;107476;1259;124481;-81
2023/03/08 10:13:31;;;;;;;;;;;;;;;2.00;51.25;99343.02;107694;1257;64566;-81
2023/03/08 10:16:10;;;;;;;;;;;;;;;2.07;51.25;99350.38;107596;1254;125207;-82
2023/03/08 10:18:50;;;;;;;;;;;;;;;2.15;51.08;99346.99;107802;1256;60707;-81
2023/03/08 10:21:18;;;;;;;;;;;;;;;2.19;50.66;99344.02;107604;1255;59652;-82
2023/03/08 10:23:46;;;;;;;;;;;;;;;2.21;50.40;99347.57;107583;1254;124085;-82
2023/03/08 10:26:14;;;;;;;;;;;;;;;2.26;50.30;99352.42;108032;1254;67252;-81
2023/03/08 10:28:41;;;;;;;;;;;;;;;2.31;50.58;99354.16;107879;1259;124448;-81
2023/03/08 10:31:19;;;;;;;;;;;;;;;2.34;49.42;99357.88;107587;1257;61372;-81
2023/03/08 10:33:48;;;;;;;;;;;;;;;2.35;49.67;99357.58;107364;1257;123709;-81
2023/03/08 10:36:20;;;;;;;;;;;;;;;2.36;49.65;99353.64;107514;1257;74635;-90
2023/03/08 10:38:58;;;;;;;;;;;;;;;2.39;49.80;99364.82;107538;1259;65833;-90
2023/03/08 10:41:35;;;;;;;;;;;;;;;2.45;49.69;99370.55;107366;1257;123540;-89
2023/03/08 10:44:05;;;;;;;;;;;;;;;2.47;48.86;99373.42;107573;1254;61056;-89
2023/03/08 10:46:45;;;;;;;;;;;;;;;2.49;49.43;99371.77;107410;1257;123740;-90
2023/03/08 10:49:22;;;;;;;;;;;;;;;2.54;49.59;99376.25;107271;1254;74344;-91
2023/03/08 10:52:13;;;;;;;;;;;;;;;2.60;49.58;99377.66;107034;1257;123724;-89
2023/03/08 10:54:40;;;;;;;;;;;;;;;2.65;50.12;99377.85;107114;1255;73208;-89
2023/03/08 10:57:10;;;;;;;;;;;;;;;2.65;49.80;99383.92;107487;1255;61335;-89
2023/03/08 10:59:39;;;;;;;;;;;;;;;2.61;49.54;99386.90;107396;1254;123786;-90
2023/03/08 11:02:17;;;;;;;;;;;;;;;2.59;49.54;99393.75;107497;1259;73383;-81
2023/03/08 11:04:51;;;;;;;;;;;;;;;2.63;49.60;99392.48;107783;1257;123740;-90
2023/03/08 11:07:22;;;;;;;;;;;;;;;2.72;49.81;99394.90;107558;1256;72745;-90
2023/03/08 11:09:49;;;;;;;;;;;;;;;2.81;49.74;99398.66;107127;1255;123887;-90
2023/03/08 11:12:23;;;;;;;;;;;;;;;2.82;49.21;99399.55;107319;1255;61146;-89
2023/03/08 11:14:53;;;;;;;;;;;;;;;2.84;49.26;99399.77;107270;1257;74412;-90
2023/03/08 11:17:32;;;;;;;;;;;;;;;2.91;49.53;99400.22;107345;1256;123661;-81
2023/03/08 11:20:06;;;;;;;;;;;;;;;3.03;49.65;99394.52;107881;1257;71109;-81
2023/03/08 11:23:12;;;;;;;;;;;;;;;3.10;49.04;99407.27;107212;1257;123761;-89
2023/03/08 11:25:46;;;;;;;;;;;;;;;3.13;49.27;99399.55;106991;1263;61184;-90
2023/03/08 11:28:16;;;;;;;;;;;;;;;3.16;49.15;99397.91;107400;1264;124495;-81
2023/03/08 11:30:45;;;;;;;;;;;;;;;3.15;48.96;99402.73;107427;1261;65621;-81
2023/03/08 11:33:49;;;;;;;;;;;;;;;3.14;48.76;99411.89;107144;1262;73546;-89
2023/03/08 11:36:42;;;;;;;;;;;;;;;3.11;48.29;99402.60;107096;1260;61922;-90
2023/03/08 11:39:22;;;;;;;;;;;;;;;3.11;48.53;99401.03;107446;1263;59987;-90
2023/03/08 11:41:58;;;;;;;;;;;;;;;3.11;48.51;99397.59;107443;1260;123896;-81
2023/03/08 11:44:34;;;;;;;;;;;;;;;3.16;48.39;99401.56;108602;1261;65350;-81
2023/03/08 11:47:32;;;;;;;;;;;;;;;3.22;47.86;99398.98;108516;1261;124055;-81
2023/03/08 11:50:04;;;;;;;;;;;;;;;3.26;47.74;99399.27;108473;1263;59773;-81
2023/03/08 11:52:51;;;;;;;;;;;;;;;3.30;47.47;99397.17;108561;1260;123486;-85
2023/03/08 11:55:43;;;;;;;;;;;;;;;3.39;47.17;99397.11;108425;1260;73435;-92
2023/03/08 11:58:29;;;;;;;;;;;;;;;3.55;47.04;99397.77;107659;1256;124737;-89
2023/03/08 12:01:00;;;;;;;;;;;;;;;3.75;47.15;99400.48;107841;1255;72403;-81
2023/03/08 12:03:29;;;;;;;;;;;;;;;3.95;47.24;99406.81;107831;1255;61238;-81
2023/03/08 12:05:58;;;;;;;;;;;;;;;4.12;46.90;99411.98;107681;1259;124051;-80
2023/03/08 12:08:29;;;;;;;;;;;;;;;4.24;46.56;99417.55;107831;1255;73277;-87
2023/03/08 12:11:01;;;;;;;;;;;;;;;4.35;46.26;99411.80;107520;1254;123556;-90
2023/03/08 12:13:32;;;;;;;;;;;;;;;4.52;46.14;99413.98;107281;1259;71596;-81
2023/03/08 12:16:35;;;;;;;;;;;;;;;4.63;46.25;99410.98;107448;1254;123922;-81
2023/03/08 12:19:14;;;;;;;;;;;;;;;4.69;46.09;99414.45;107080;1263;61037;-81
2023/03/08 12:21:47;;;;;;;;;;;;;;;4.76;46.11;99418.29;106977;1263;123788;-81
2023/03/08 12:24:14;;;;;;;;;;;;;;;4.85;46.18;99415.08;107021;1263;64786;-81
2023/03/08 12:27:02;;;;;;;;;;;;;;;4.96;45.73;99418.81;106926;1263;72676;-81
2023/03/08 12:29:31;;;;;;;;;;;;;;;5.04;45.90;99424.05;107006;1263;123867;-81
2023/03/08 12:31:58;;;;;;;;;;;;;;;5.17;45.94;99422.64;107578;1262;61121;-81
2023/03/08 12:34:35;;;;;;;;;;;;;;;5.21;45.48;99431.45;107079;1262;124759;-81
2023/03/08 12:37:03;;;;;;;;;;;;;;;5.12;45.37;99427.90;107175;1263;67464;-81
2023/03/08 12:39:34;;;;;;;;;;;;;;;4.99;45.03;99436.78;107130;1263;71304;-80
2023/03/08 12:42:21;;;;;;;;;;;;;;;4.86;45.14;99436.97;106950;1268;123563;-80
2023/03/08 12:44:48;;;;;;;;;;;;;;;4.71;45.14;99438.65;107048;1263;60908;-90
2023/03/08 12:47:19;;;;;;;;;;;;;;;4.62;45.25;99442.75;106874;1263;123637;-90
2023/03/08 12:49:55;;;;;;;;;;;;;;;4.51;45.15;99440.89;106734;1263;67360;-90
2023/03/08 12:52:24;;;;;;;;;;;;;;;4.41;45.38;99441.30;106558;1254;123952;-90
2023/03/08 12:55:33;;;;;;;;;;;;;;;4.27;45.44;99444.20;107231;1255;60388;-90
2023/03/08 12:58:13;;;;;;;;;;;;;;;4.14;45.44;99450.58;106689;1261;126232;-90
2023/03/08 13:00:42;;;;;;;;;;;;;;;4.07;45.54;99450.05;108360;1261;73411;-81
2023/03/08 13:03:12;;;;;;;;;;;;;;;4.00;45.51;99449.14;107426;1257;66876;-90
2023/03/08 13:05:42;;;;;;;;;;;;;;;3.96;45.74;99453.52;107370;1256;123591;-91